createdAt,value
2023-05-05T00:00:27.655Z,84.28
2023-05-05T00:01:27.635Z,84.48
2023-05-05T00:02:27.710Z,84.48
2023-05-05T00:03:27.775Z,84.38
2023-05-05T00:04:27.632Z,84.28
2023-05-05T00:05:27.624Z,84.28
2023-05-05T00:06:28.495Z,84.28
2023-05-05T00:07:27.600Z,84.48
2023-05-05T00:08:27.565Z,84.69
2023-05-05T00:09:27.590Z,84.69
2023-05-05T00:10:27.561Z,84.79
2023-05-05T00:11:27.542Z,84.89
2023-05-05T00:12:27.538Z,85.10
2023-05-05T00:13:27.548Z,85.20
2023-05-05T00:14:27.521Z,85.44
2023-05-05T00:15:27.513Z,85.55
2023-05-05T00:16:27.493Z,85.55
2023-05-05T00:17:27.499Z,85.34
2023-05-05T00:18:27.484Z,85.24
2023-05-05T00:19:27.444Z,85.14
2023-05-05T00:20:27.533Z,85.34
2023-05-05T00:21:27.448Z,85.34
2023-05-05T00:22:27.441Z,85.44
2023-05-05T00:23:27.422Z,85.34
2023-05-05T00:24:27.435Z,85.34
2023-05-05T00:25:27.416Z,85.55
2023-05-05T00:26:27.371Z,85.85
2023-05-05T00:27:27.369Z,85.89
2023-05-05T00:28:27.341Z,86.30
2023-05-05T00:29:27.343Z,86.20
2023-05-05T00:30:27.326Z,86.20
2023-05-05T00:31:27.373Z,86.30
2023-05-05T00:32:27.380Z,86.51
2023-05-05T00:33:27.323Z,86.91
2023-05-05T00:34:27.300Z,86.71
2023-05-05T00:35:27.307Z,86.61
2023-05-05T00:36:27.259Z,86.71
2023-05-05T00:37:27.296Z,87.06
2023-05-05T00:38:27.243Z,87.26
2023-05-05T00:39:27.286Z,87.06
2023-05-05T00:40:27.240Z,87.06
2023-05-05T00:41:27.279Z,87.47
2023-05-05T00:42:27.210Z,87.67
2023-05-05T00:43:27.215Z,87.77
2023-05-05T00:44:27.194Z,87.98
2023-05-05T00:45:27.194Z,88.70
2023-05-05T00:46:27.263Z,88.29
2023-05-05T00:47:27.190Z,87.88
2023-05-05T00:48:27.160Z,87.88
2023-05-05T00:49:27.177Z,87.77
2023-05-05T00:50:27.131Z,87.88
2023-05-05T00:51:27.181Z,88.02
2023-05-05T00:52:27.093Z,88.02
2023-05-05T00:53:27.136Z,88.02
2023-05-05T00:54:27.083Z,88.23
2023-05-05T00:55:27.066Z,88.02
2023-05-05T00:56:27.064Z,88.02
2023-05-05T00:57:27.054Z,87.82
2023-05-05T00:58:27.029Z,87.57
2023-05-05T00:59:27.026Z,87.47
2023-05-05T01:00:27.011Z,87.37
2023-05-05T01:01:27.048Z,87.20
2023-05-05T01:02:27.019Z,87.30
2023-05-05T01:03:27.150Z,87.61
2023-05-05T01:04:26.986Z,87.71
2023-05-05T01:05:27.000Z,87.51
2023-05-05T01:06:26.956Z,87.71
2023-05-05T01:07:26.935Z,87.71
2023-05-05T01:08:26.928Z,87.61
2023-05-05T01:09:26.949Z,87.41
2023-05-05T01:10:34.436Z,87.30
2023-05-05T01:11:29.666Z,87.41
2023-05-05T01:12:26.899Z,87.41
2023-05-05T01:13:28.666Z,87.41
2023-05-05T01:14:26.855Z,87.30
2023-05-05T01:15:26.866Z,87.51
2023-05-05T01:16:26.886Z,87.45
2023-05-05T01:17:26.861Z,87.55
2023-05-05T01:18:26.820Z,87.76
2023-05-05T01:19:26.822Z,87.65
2023-05-05T01:20:26.796Z,87.65
2023-05-05T01:21:26.811Z,87.85
2023-05-05T01:22:27.083Z,88.17
2023-05-05T01:23:26.786Z,87.96
2023-05-05T01:24:26.752Z,87.85
2023-05-05T01:25:26.763Z,88.17
2023-05-05T01:26:26.728Z,87.85
2023-05-05T01:27:26.737Z,88.27
2023-05-05T01:28:26.731Z,88.37
2023-05-05T01:29:26.691Z,88.47
2023-05-05T01:30:26.709Z,88.47
2023-05-05T01:31:26.807Z,88.47
2023-05-05T01:32:26.741Z,88.41
2023-05-05T01:33:26.812Z,88.51
2023-05-05T01:34:26.636Z,88.41
2023-05-05T01:35:26.643Z,88.37
2023-05-05T01:36:26.644Z,87.85
2023-05-05T01:37:26.646Z,87.45
2023-05-05T01:38:26.639Z,87.04
2023-05-05T01:39:26.593Z,86.93
2023-05-05T01:40:26.585Z,86.83
2023-05-05T01:41:26.577Z,86.58
2023-05-05T01:42:26.567Z,86.38
2023-05-05T01:43:26.849Z,86.48
2023-05-05T01:44:26.534Z,86.28
2023-05-05T01:45:26.564Z,86.07
2023-05-05T01:46:26.515Z,86.18
2023-05-05T01:47:26.576Z,85.87
2023-05-05T01:48:26.501Z,85.77
2023-05-05T01:49:26.486Z,85.77
2023-05-05T01:50:26.476Z,85.77
2023-05-05T01:51:26.474Z,85.77
2023-05-05T01:52:26.444Z,85.46
2023-05-05T01:53:27.332Z,85.15
2023-05-05T01:54:26.504Z,85.05
2023-05-05T01:55:26.439Z,85.01
2023-05-05T01:56:26.426Z,85.15
2023-05-05T01:57:26.418Z,85.05
2023-05-05T01:58:26.392Z,84.91
2023-05-05T01:59:26.392Z,84.70
2023-05-05T02:00:26.352Z,84.70
2023-05-05T02:01:26.437Z,84.39
2023-05-05T02:02:26.414Z,84.19
2023-05-05T02:03:26.440Z,84.19
2023-05-05T02:04:26.319Z,83.98
2023-05-05T02:05:26.330Z,83.78
2023-05-05T02:06:26.300Z,83.64
2023-05-05T02:07:26.321Z,83.13
2023-05-05T02:08:26.320Z,83.03
2023-05-05T02:09:26.267Z,83.13
2023-05-05T02:10:35.824Z,82.92
2023-05-05T02:11:26.393Z,82.82
2023-05-05T02:12:26.213Z,83.13
2023-05-05T02:13:34.810Z,82.82
2023-05-05T02:14:26.216Z,82.71
2023-05-05T02:15:26.226Z,82.82
2023-05-05T02:16:26.185Z,82.62
2023-05-05T02:17:26.302Z,82.62
2023-05-05T02:18:26.191Z,82.51
2023-05-05T02:19:26.167Z,82.51
2023-05-05T02:20:26.149Z,82.51
2023-05-05T02:21:26.171Z,82.51
2023-05-05T02:22:26.126Z,82.41
2023-05-05T02:23:26.133Z,82.41
2023-05-05T02:24:26.173Z,82.51
2023-05-05T02:25:26.094Z,82.41
2023-05-05T02:26:26.106Z,82.35
2023-05-05T02:27:26.090Z,82.35
2023-05-05T02:28:26.075Z,82.24
2023-05-05T02:29:26.105Z,82.24
2023-05-05T02:30:26.036Z,82.04
2023-05-05T02:31:26.110Z,82.04
2023-05-05T02:32:26.058Z,82.14
2023-05-05T02:33:26.034Z,82.45
2023-05-05T02:34:25.996Z,82.55
2023-05-05T02:35:26.020Z,82.55
2023-05-05T02:36:26.016Z,82.79
2023-05-05T02:37:25.989Z,82.90
2023-05-05T02:38:25.943Z,82.90
2023-05-05T02:39:25.976Z,83.00
2023-05-05T02:40:25.938Z,83.31
2023-05-05T02:41:25.944Z,83.31
2023-05-05T02:42:25.916Z,83.31
2023-05-05T02:43:26.176Z,83.34
2023-05-05T02:44:25.949Z,83.55
2023-05-05T02:45:25.889Z,83.96
2023-05-05T02:46:25.894Z,84.06
2023-05-05T02:47:25.913Z,84.17
2023-05-05T02:48:25.843Z,84.37
2023-05-05T02:49:25.838Z,84.41
2023-05-05T02:50:25.884Z,84.31
2023-05-05T02:51:25.827Z,84.41
2023-05-05T02:52:25.805Z,84.61
2023-05-05T02:53:25.839Z,85.03
2023-05-05T02:54:25.772Z,84.92
2023-05-05T02:55:25.837Z,85.03
2023-05-05T02:56:25.772Z,85.03
2023-05-05T02:57:25.771Z,85.03
2023-05-05T02:58:25.748Z,85.03
2023-05-05T02:59:25.752Z,84.72
2023-05-05T03:00:25.739Z,84.52
2023-05-05T03:01:25.774Z,84.52
2023-05-05T03:02:25.775Z,84.61
2023-05-05T03:03:25.790Z,84.61
2023-05-05T03:04:25.668Z,84.61
2023-05-05T03:05:25.705Z,84.72
2023-05-05T03:06:25.649Z,84.61
2023-05-05T03:07:25.660Z,84.61
2023-05-05T03:08:25.642Z,84.61
2023-05-05T03:09:25.639Z,84.72
2023-05-05T03:10:25.614Z,84.82
2023-05-05T03:11:25.630Z,84.96
2023-05-05T03:12:25.619Z,85.17
2023-05-05T03:13:25.593Z,85.47
2023-05-05T03:14:25.551Z,85.78
2023-05-05T03:15:25.586Z,85.99
2023-05-05T03:16:25.634Z,86.19
2023-05-05T03:17:25.597Z,86.54
2023-05-05T03:18:25.513Z,86.54
2023-05-05T03:19:25.535Z,86.75
2023-05-05T03:20:25.530Z,86.91
2023-05-05T03:21:25.497Z,86.91
2023-05-05T03:22:25.474Z,86.81
2023-05-05T03:23:25.484Z,86.71
2023-05-05T03:24:25.497Z,86.71
2023-05-05T03:25:25.496Z,86.75
2023-05-05T03:26:25.482Z,86.95
2023-05-05T03:27:25.537Z,86.95
2023-05-05T03:28:25.447Z,87.26
2023-05-05T03:29:25.432Z,87.46
2023-05-05T03:30:25.393Z,87.46
2023-05-05T03:31:25.427Z,87.46
2023-05-05T03:32:25.384Z,87.67
2023-05-05T03:33:25.532Z,87.77
2023-05-05T03:34:25.347Z,87.88
2023-05-05T03:35:25.361Z,88.12
2023-05-05T03:36:27.183Z,88.33
2023-05-05T03:37:25.326Z,88.33
2023-05-05T03:38:25.314Z,88.43
2023-05-05T03:39:25.315Z,88.53
2023-05-05T03:40:36.349Z,88.43
2023-05-05T03:41:26.300Z,88.53
2023-05-05T03:42:25.274Z,88.64
2023-05-05T03:43:25.264Z,88.84
2023-05-05T03:44:25.259Z,88.95
2023-05-05T03:45:25.245Z,89.36
2023-05-05T03:46:25.247Z,89.46
2023-05-05T03:47:25.677Z,89.46
2023-05-05T03:48:25.214Z,89.56
2023-05-05T03:49:25.212Z,89.60
2023-05-05T03:50:25.188Z,89.70
2023-05-05T03:51:25.203Z,89.81
2023-05-05T03:52:25.157Z,89.91
2023-05-05T03:53:25.170Z,89.91
2023-05-05T03:54:25.139Z,89.91
2023-05-05T03:55:25.187Z,89.91
2023-05-05T03:56:25.154Z,90.01
2023-05-05T03:57:25.188Z,90.12
2023-05-05T03:58:25.136Z,90.12
2023-05-05T03:59:25.096Z,90.22
2023-05-05T04:00:25.066Z,90.18
2023-05-05T04:01:25.079Z,90.08
2023-05-05T04:02:25.138Z,90.08
2023-05-05T04:03:25.272Z,89.87
2023-05-05T04:04:25.106Z,89.87
2023-05-05T04:05:25.024Z,89.66
2023-05-05T04:06:25.038Z,89.72
2023-05-05T04:07:25.030Z,89.31
2023-05-05T04:08:25.003Z,89.11
2023-05-05T04:09:24.975Z,89.11
2023-05-05T04:10:24.977Z,88.90
2023-05-05T04:11:24.980Z,88.76
2023-05-05T04:12:24.970Z,88.35
2023-05-05T04:13:24.959Z,88.04
2023-05-05T04:14:24.970Z,87.84
2023-05-05T04:15:24.932Z,87.73
2023-05-05T04:16:24.999Z,87.59
2023-05-05T04:17:24.910Z,87.49
2023-05-05T04:18:24.908Z,87.49
2023-05-05T04:19:24.904Z,87.38
2023-05-05T04:20:24.894Z,87.28
2023-05-05T04:21:24.876Z,87.28
2023-05-05T04:22:24.859Z,87.38
2023-05-05T04:23:24.843Z,87.08
2023-05-05T04:24:24.927Z,87.08
2023-05-05T04:25:24.839Z,86.87
2023-05-05T04:26:24.816Z,86.87
2023-05-05T04:27:24.815Z,86.83
2023-05-05T04:28:24.997Z,86.63
2023-05-05T04:29:24.781Z,86.42
2023-05-05T04:30:24.803Z,86.22
2023-05-05T04:31:24.800Z,85.91
2023-05-05T04:32:24.791Z,85.71
2023-05-05T04:33:24.734Z,85.60
2023-05-05T04:34:24.730Z,85.30
2023-05-05T04:35:24.702Z,85.19
2023-05-05T04:36:24.696Z,85.09
2023-05-05T04:37:24.678Z,85.19
2023-05-05T04:38:24.721Z,85.19
2023-05-05T04:39:24.653Z,85.23
2023-05-05T04:40:24.665Z,85.44
2023-05-05T04:41:24.655Z,85.64
2023-05-05T04:42:24.654Z,85.85
2023-05-05T04:43:24.841Z,86.15
2023-05-05T04:44:24.654Z,86.25
2023-05-05T04:45:24.604Z,86.36
2023-05-05T04:46:24.633Z,86.57
2023-05-05T04:47:24.587Z,86.66
2023-05-05T04:48:24.581Z,86.66
2023-05-05T04:49:24.555Z,86.98
2023-05-05T04:50:24.544Z,86.98
2023-05-05T04:51:24.557Z,87.24
2023-05-05T04:52:24.551Z,87.14
2023-05-05T04:53:28.546Z,86.83
2023-05-05T04:54:24.515Z,86.22
2023-05-05T04:55:24.487Z,86.01
2023-05-05T04:56:24.503Z,85.60
2023-05-05T04:57:24.485Z,85.39
2023-05-05T04:58:24.470Z,85.46
2023-05-05T04:59:24.494Z,85.56
2023-05-05T05:00:24.449Z,85.46
2023-05-05T05:01:24.459Z,85.25
2023-05-05T05:02:24.543Z,84.84
2023-05-05T05:03:24.502Z,84.74
2023-05-05T05:04:24.417Z,84.39
2023-05-05T05:05:24.372Z,84.29
2023-05-05T05:06:24.388Z,84.39
2023-05-05T05:07:24.378Z,84.09
2023-05-05T05:08:24.361Z,83.88
2023-05-05T05:09:24.334Z,83.84
2023-05-05T05:10:24.347Z,83.74
2023-05-05T05:11:24.340Z,83.13
2023-05-05T05:12:24.331Z,82.57
2023-05-05T05:13:24.400Z,82.07
2023-05-05T05:14:24.303Z,82.03
2023-05-05T05:15:24.283Z,81.41
2023-05-05T05:16:24.300Z,81.01
2023-05-05T05:17:24.282Z,81.10
2023-05-05T05:18:24.256Z,80.66
2023-05-05T05:19:24.228Z,80.66
2023-05-05T05:20:24.238Z,80.25
2023-05-05T05:21:24.199Z,80.05
2023-05-05T05:22:24.217Z,79.19
2023-05-05T05:23:24.205Z,78.99
2023-05-05T05:24:24.206Z,79.70
2023-05-05T05:25:24.174Z,79.05
2023-05-05T05:26:24.169Z,77.93
2023-05-05T05:27:24.132Z,77.83
2023-05-05T05:28:24.143Z,77.52
2023-05-05T05:29:24.156Z,77.48
2023-05-05T05:30:24.436Z,77.08
2023-05-05T05:31:24.118Z,77.18
2023-05-05T05:32:24.115Z,76.43
2023-05-05T05:33:24.266Z,76.12
2023-05-05T05:34:24.114Z,76.19
2023-05-05T05:35:24.063Z,75.48
2023-05-05T05:36:24.062Z,74.42
2023-05-05T05:37:24.036Z,74.01
2023-05-05T05:38:24.080Z,74.28
2023-05-05T05:39:24.023Z,73.67
2023-05-05T05:40:24.014Z,73.74
2023-05-05T05:41:24.006Z,72.92
2023-05-05T05:42:23.985Z,72.41
2023-05-05T05:43:24.157Z,72.69
2023-05-05T05:44:24.021Z,71.16
2023-05-05T05:45:23.956Z,71.06
2023-05-05T05:46:24.005Z,70.45
2023-05-05T05:47:23.974Z,70.24
2023-05-05T05:48:23.931Z,69.90
2023-05-05T05:49:23.893Z,70.01
2023-05-05T05:50:24.031Z,70.14
2023-05-05T05:51:23.895Z,70.21
2023-05-05T05:52:23.907Z,70.01
2023-05-05T05:53:24.110Z,70.31
2023-05-05T05:54:23.905Z,70.92
2023-05-05T05:55:23.852Z,71.84
2023-05-05T05:56:23.874Z,72.55
2023-05-05T05:57:23.812Z,72.78
2023-05-05T05:58:23.832Z,72.78
2023-05-05T05:59:23.790Z,73.80
2023-05-05T06:00:23.792Z,74.21
2023-05-05T06:01:23.870Z,75.64
2023-05-05T06:02:23.802Z,77.57
2023-05-05T06:03:24.103Z,79.41
2023-05-05T06:04:23.816Z,79.71
2023-05-05T06:05:23.747Z,80.93
2023-05-05T06:06:23.750Z,79.91
2023-05-05T06:07:23.725Z,81.07
2023-05-05T06:08:25.061Z,81.99
2023-05-05T06:09:23.688Z,82.29
2023-05-05T06:10:28.068Z,83.31
2023-05-05T06:11:23.683Z,84.90
2023-05-05T06:12:23.665Z,84.70
2023-05-05T06:13:23.655Z,81.58
2023-05-05T06:14:23.667Z,84.29
2023-05-05T06:15:23.613Z,86.94
2023-05-05T06:16:23.669Z,87.18
2023-05-05T06:17:23.606Z,87.79
2023-05-05T06:18:23.672Z,87.79
2023-05-05T06:19:23.603Z,88.71
2023-05-05T06:20:23.587Z,88.16
2023-05-05T06:21:23.569Z,87.85
2023-05-05T06:22:23.565Z,85.82
2023-05-05T06:23:23.528Z,86.63
2023-05-05T06:24:23.568Z,86.63
2023-05-05T06:25:23.535Z,86.53
2023-05-05T06:26:23.521Z,86.39
2023-05-05T06:27:23.489Z,86.39
2023-05-05T06:28:23.500Z,86.59
2023-05-05T06:29:23.470Z,85.43
2023-05-05T06:30:23.470Z,85.53
2023-05-05T06:31:23.524Z,84.07
2023-05-05T06:32:23.530Z,81.12
2023-05-05T06:33:23.440Z,83.22
2023-05-05T06:34:23.430Z,80.68
2023-05-05T06:35:23.419Z,81.15
2023-05-05T06:36:23.492Z,80.33
2023-05-05T06:37:23.377Z,81.35
2023-05-05T06:38:23.397Z,79.63
2023-05-05T06:39:23.367Z,80.74
2023-05-05T06:40:23.366Z,80.94
2023-05-05T06:41:23.358Z,79.12
2023-05-05T06:42:23.348Z,79.05
2023-05-05T06:43:23.337Z,78.75
2023-05-05T06:44:23.317Z,77.43
2023-05-05T06:45:23.309Z,77.97
2023-05-05T06:46:23.333Z,80.21
2023-05-05T06:47:23.293Z,80.00
2023-05-05T06:48:23.288Z,79.60
2023-05-05T06:49:23.276Z,78.38
2023-05-05T06:50:23.280Z,77.67
2023-05-05T06:51:23.236Z,80.11
2023-05-05T06:52:23.255Z,81.02
2023-05-05T06:53:23.236Z,83.36
2023-05-05T06:54:23.224Z,82.99
2023-05-05T06:55:23.201Z,82.93
2023-05-05T06:56:23.221Z,85.17
2023-05-05T06:57:23.178Z,85.27
2023-05-05T06:58:23.164Z,82.87
2023-05-05T06:59:23.180Z,85.92
2023-05-05T07:00:23.138Z,87.75
2023-05-05T07:01:23.250Z,89.79
2023-05-05T07:02:25.292Z,89.12
2023-05-05T07:03:23.244Z,88.81
2023-05-05T07:04:23.134Z,88.31
2023-05-05T07:05:23.088Z,87.29
2023-05-05T07:06:23.111Z,89.01
2023-05-05T07:07:23.081Z,90.64
2023-05-05T07:08:23.074Z,91.46
2023-05-05T07:09:23.027Z,91.50
2023-05-05T07:11:22.287Z,90.28
2023-05-05T07:12:22.137Z,90.79
2023-05-05T07:13:22.905Z,90.38
2023-05-05T07:14:24.269Z,90.28
2023-05-05T07:15:28.733Z,92.83
2023-05-05T07:16:23.121Z,93.44
2023-05-05T07:17:22.094Z,93.33
2023-05-05T07:18:22.085Z,93.54
2023-05-05T07:19:22.059Z,95.07
2023-05-05T07:20:22.078Z,95.74
2023-05-05T07:21:22.053Z,95.64
2023-05-05T07:22:22.056Z,96.45
2023-05-05T07:23:22.021Z,97.37
2023-05-05T07:24:21.999Z,98.28
2023-05-05T07:25:22.020Z,98.90
2023-05-05T07:26:21.964Z,99.41
2023-05-05T07:27:21.979Z,99.61
2023-05-05T07:28:21.967Z,99.81
2023-05-05T07:29:21.949Z,99.20
2023-05-05T07:30:22.113Z,99.30
2023-05-05T07:31:21.970Z,98.49
2023-05-05T07:32:21.978Z,96.71
2023-05-05T07:33:21.925Z,96.41
2023-05-05T07:34:22.139Z,96.67
2023-05-05T07:35:21.908Z,96.06
2023-05-05T07:36:21.886Z,96.22
2023-05-05T07:37:21.884Z,96.22
2023-05-05T07:38:21.846Z,95.25
2023-05-05T07:39:21.861Z,94.44
2023-05-05T07:40:21.851Z,94.70
2023-05-05T07:41:21.836Z,94.05
2023-05-05T07:42:21.812Z,94.15
2023-05-05T07:43:21.846Z,92.68
2023-05-05T07:44:21.812Z,91.47
2023-05-05T07:45:21.784Z,90.86
2023-05-05T07:46:21.797Z,88.89
2023-05-05T07:47:21.890Z,88.78
2023-05-05T07:48:21.746Z,89.29
2023-05-05T07:49:21.780Z,87.97
2023-05-05T07:50:21.729Z,89.19
2023-05-05T07:51:21.698Z,88.99
2023-05-05T07:52:30.072Z,88.18
2023-05-05T07:53:22.702Z,89.55
2023-05-05T07:54:21.674Z,87.93
2023-05-05T07:55:21.688Z,86.98
2023-05-05T07:56:21.883Z,87.79
2023-05-05T07:57:21.668Z,88.09
2023-05-05T07:58:21.660Z,85.62
2023-05-05T07:59:21.652Z,86.33
2023-05-05T08:00:21.632Z,85.01
2023-05-05T08:01:21.624Z,85.21
2023-05-05T08:02:21.647Z,86.43
2023-05-05T08:03:21.732Z,86.02
2023-05-05T08:04:21.648Z,85.42
2023-05-05T08:05:21.614Z,85.38
2023-05-05T08:06:21.532Z,85.48
2023-05-05T08:07:21.545Z,84.27
2023-05-05T08:08:21.546Z,85.58
2023-05-05T08:09:21.535Z,82.54
2023-05-05T08:10:21.501Z,83.15
2023-05-05T08:11:21.512Z,83.76
2023-05-05T08:12:21.494Z,84.06
2023-05-05T08:13:21.491Z,84.47
2023-05-05T08:14:21.462Z,85.38
2023-05-05T08:15:21.460Z,84.02
2023-05-05T08:16:21.470Z,85.54
2023-05-05T08:17:21.510Z,84.19
2023-05-05T08:18:21.413Z,80.84
2023-05-05T08:19:28.759Z,79.79
2023-05-05T08:20:22.424Z,80.20
2023-05-05T08:21:21.401Z,79.15
2023-05-05T08:22:21.372Z,80.36
2023-05-05T08:23:21.389Z,80.36
2023-05-05T08:24:21.375Z,78.75
2023-05-05T08:25:21.350Z,80.06
2023-05-05T08:26:21.349Z,79.96
2023-05-05T08:27:21.332Z,80.16
2023-05-05T08:28:21.326Z,79.32
2023-05-05T08:29:21.306Z,78.95
2023-05-05T08:30:21.276Z,78.41
2023-05-05T08:31:21.358Z,79.01
2023-05-05T08:32:21.286Z,80.02
2023-05-05T08:33:21.271Z,80.12
2023-05-05T08:34:21.279Z,77.29
2023-05-05T08:35:21.260Z,78.37
2023-05-05T08:36:21.778Z,77.76
2023-05-05T08:37:21.238Z,77.56
2023-05-05T08:38:21.201Z,78.47
2023-05-05T08:39:21.232Z,77.26
2023-05-05T08:40:21.421Z,78.37
2023-05-05T08:41:21.191Z,76.55
2023-05-05T08:42:33.297Z,77.15
2023-05-05T08:43:22.168Z,77.26
2023-05-05T08:44:21.140Z,77.39
2023-05-05T08:45:21.132Z,77.06
2023-05-05T08:46:21.150Z,76.04
2023-05-05T08:47:21.114Z,75.44
2023-05-05T08:48:21.099Z,77.56
2023-05-05T08:49:21.106Z,77.36
2023-05-05T08:50:21.082Z,77.56
2023-05-05T08:51:21.088Z,79.58
2023-05-05T08:52:21.092Z,78.43
2023-05-05T08:53:21.061Z,76.78
2023-05-05T08:54:21.052Z,75.16
2023-05-05T08:55:21.060Z,77.35
2023-05-05T08:56:20.995Z,75.84
2023-05-05T08:57:21.031Z,75.06
2023-05-05T08:58:20.981Z,73.58
2023-05-05T08:59:20.994Z,71.43
2023-05-05T09:00:21.005Z,69.76
2023-05-05T09:01:21.041Z,68.72
2023-05-05T09:02:20.963Z,67.88
2023-05-05T09:03:20.967Z,66.11
2023-05-05T09:04:20.929Z,66.58
2023-05-05T09:05:20.912Z,66.65
2023-05-05T09:06:20.921Z,64.84
2023-05-05T09:07:20.929Z,66.25
2023-05-05T09:08:20.871Z,65.31
2023-05-05T09:09:20.889Z,65.48
2023-05-05T09:10:20.861Z,62.65
2023-05-05T09:11:20.872Z,61.12
2023-05-05T09:12:20.829Z,60.39
2023-05-05T09:13:20.888Z,59.36
2023-05-05T09:14:20.833Z,57.51
2023-05-05T09:15:20.827Z,57.26
2023-05-05T09:16:20.802Z,56.33
2023-05-05T09:17:20.799Z,55.13
2023-05-05T09:18:20.790Z,54.94
2023-05-05T09:19:20.791Z,53.31
2023-05-05T09:20:20.809Z,54.41
2023-05-05T09:21:20.746Z,52.32
2023-05-05T09:22:20.742Z,53.24
2023-05-05T09:23:20.750Z,53.06
2023-05-05T09:24:20.718Z,53.39
2023-05-05T09:25:20.752Z,56.81
2023-05-05T09:26:20.703Z,56.81
2023-05-05T09:27:20.711Z,55.32
2023-05-05T09:28:20.671Z,56.64
2023-05-05T09:29:20.655Z,54.91
2023-05-05T09:30:20.703Z,55.71
2023-05-05T09:31:20.688Z,57.24
2023-05-05T09:32:20.633Z,56.41
2023-05-05T09:33:20.645Z,56.98
2023-05-05T09:34:20.608Z,56.79
2023-05-05T09:35:20.602Z,54.76
2023-05-05T09:36:20.587Z,54.94
2023-05-05T09:37:20.607Z,53.24
2023-05-05T09:38:20.728Z,52.44
2023-05-05T09:39:20.595Z,51.72
2023-05-05T09:40:20.711Z,53.41
2023-05-05T09:41:20.528Z,53.04
2023-05-05T09:42:20.517Z,53.17
2023-05-05T09:43:20.517Z,51.70
2023-05-05T09:44:20.509Z,53.04
2023-05-05T09:45:20.500Z,54.22
2023-05-05T09:46:20.521Z,54.52
2023-05-05T09:47:29.282Z,54.79
2023-05-05T09:48:21.476Z,54.57
2023-05-05T09:49:20.567Z,54.32
2023-05-05T09:50:20.528Z,52.52
2023-05-05T09:51:20.442Z,53.79
2023-05-05T09:52:20.411Z,55.44
2023-05-05T09:53:20.405Z,57.78
2023-05-05T09:54:20.391Z,56.45
2023-05-05T09:55:20.398Z,54.94
2023-05-05T09:56:20.732Z,53.06
2023-05-05T09:57:20.394Z,54.04
2023-05-05T09:58:20.406Z,52.27
2023-05-05T09:59:20.353Z,53.41
2023-05-05T10:00:20.344Z,51.15
2023-05-05T10:01:20.821Z,51.17
2023-05-05T10:02:20.293Z,53.39
2023-05-05T10:03:20.305Z,49.46
2023-05-05T10:04:20.282Z,50.52
2023-05-05T10:05:20.317Z,50.43
2023-05-05T10:06:20.256Z,48.56
2023-05-05T10:07:20.254Z,49.93
2023-05-05T10:08:20.248Z,49.11
2023-05-05T10:09:20.276Z,48.89
2023-05-05T10:10:20.246Z,48.99
2023-05-05T10:11:20.218Z,48.81
2023-05-05T10:12:20.210Z,50.93
2023-05-05T10:13:20.234Z,50.52
2023-05-05T10:14:20.177Z,50.43
2023-05-05T10:15:20.162Z,50.13
2023-05-05T10:16:20.228Z,51.12
2023-05-05T10:17:20.164Z,50.01
2023-05-05T10:18:20.163Z,49.80
2023-05-05T10:19:20.125Z,48.61
2023-05-05T10:20:20.123Z,50.40
2023-05-05T10:21:20.136Z,49.73
2023-05-05T10:22:20.093Z,49.73
2023-05-05T10:23:20.108Z,49.58
2023-05-05T10:24:20.096Z,47.77
2023-05-05T10:25:20.064Z,49.04
2023-05-05T10:26:20.065Z,45.74
2023-05-05T10:27:20.037Z,47.31
2023-05-05T10:28:20.014Z,49.21
2023-05-05T10:29:20.053Z,48.52
2023-05-05T10:30:20.020Z,46.24
2023-05-05T10:31:25.105Z,46.16
2023-05-05T10:32:47.053Z,46.60
2023-05-05T10:34:19.994Z,50.13
2023-05-05T10:35:19.967Z,50.93
2023-05-05T10:36:19.945Z,50.13
2023-05-05T10:37:19.945Z,49.76
2023-05-05T10:38:19.906Z,50.40
2023-05-05T10:39:19.966Z,52.92
2023-05-05T10:40:19.993Z,52.02
2023-05-05T10:41:19.912Z,50.73
2023-05-05T10:42:19.896Z,51.45
2023-05-05T10:43:19.893Z,53.44
2023-05-05T10:44:19.879Z,53.64
2023-05-05T10:45:19.955Z,53.31
2023-05-05T10:46:19.887Z,53.09
2023-05-05T10:47:19.874Z,50.90
2023-05-05T10:48:19.887Z,50.00
2023-05-05T10:49:19.836Z,51.62
2023-05-05T10:50:19.811Z,51.25
2023-05-05T10:51:31.016Z,52.69
2023-05-05T10:52:20.797Z,55.09
2023-05-05T10:53:19.767Z,53.96
2023-05-05T10:54:19.810Z,54.94
2023-05-05T10:55:19.759Z,53.61
2023-05-05T10:56:19.751Z,52.39
2023-05-05T10:57:19.745Z,52.02
2023-05-05T10:58:19.730Z,51.65
2023-05-05T10:59:19.721Z,52.47
2023-05-05T11:00:19.758Z,53.77
2023-05-05T11:01:19.705Z,54.09
2023-05-05T11:02:19.681Z,54.19
2023-05-05T11:03:19.767Z,53.56
2023-05-05T11:04:19.674Z,54.39
2023-05-05T11:05:19.644Z,54.52
2023-05-05T11:06:19.654Z,55.62
2023-05-05T11:07:19.625Z,55.16
2023-05-05T11:08:19.632Z,54.94
2023-05-05T11:09:19.602Z,55.88
2023-05-05T11:10:19.605Z,52.94
2023-05-05T11:11:19.659Z,52.22
2023-05-05T11:12:19.596Z,51.62
2023-05-05T11:13:19.674Z,53.44
2023-05-05T11:14:19.575Z,51.82
2023-05-05T11:15:19.532Z,50.90
2023-05-05T11:16:19.557Z,50.60
2023-05-05T11:17:19.552Z,50.01
2023-05-05T11:18:19.530Z,48.71
2023-05-05T11:19:19.482Z,50.01
2023-05-05T11:20:19.502Z,51.00
2023-05-05T11:21:19.476Z,49.33
2023-05-05T11:22:19.488Z,51.82
2023-05-05T11:23:19.445Z,51.22
2023-05-05T11:24:19.464Z,49.80
2023-05-05T11:25:19.442Z,48.71
2023-05-05T11:26:19.449Z,48.71
2023-05-05T11:27:19.402Z,48.71
2023-05-05T11:28:19.418Z,49.61
2023-05-05T11:29:19.386Z,50.03
2023-05-05T11:30:19.385Z,50.73
2023-05-05T11:31:19.450Z,49.80
2023-05-05T11:32:19.369Z,50.90
2023-05-05T11:33:19.358Z,51.12
2023-05-05T11:34:19.353Z,51.12
2023-05-05T11:35:19.325Z,50.20
2023-05-05T11:36:19.347Z,50.60
2023-05-05T11:37:19.359Z,50.88
2023-05-05T11:38:19.319Z,51.37
2023-05-05T11:39:19.303Z,50.38
2023-05-05T11:40:19.332Z,50.18
2023-05-05T11:41:19.276Z,51.42
2023-05-05T11:42:19.395Z,49.43
2023-05-05T11:43:19.254Z,52.64
2023-05-05T11:44:19.270Z,52.14
2023-05-05T11:45:19.226Z,52.22
2023-05-05T11:46:19.273Z,51.79
2023-05-05T11:47:19.288Z,51.17
2023-05-05T11:48:19.240Z,51.17
2023-05-05T11:49:19.204Z,51.05
2023-05-05T11:50:19.214Z,49.07
2023-05-05T11:51:19.191Z,48.94
2023-05-05T11:52:19.169Z,49.93
2023-05-05T11:53:19.145Z,48.84
2023-05-05T11:54:19.143Z,48.27
2023-05-05T11:55:19.117Z,49.63
2023-05-05T11:56:19.407Z,47.63
2023-05-05T11:57:19.100Z,47.80
2023-05-05T11:58:19.117Z,46.42
2023-05-05T11:59:19.094Z,47.88
2023-05-05T12:00:19.097Z,46.09
2023-05-05T12:01:19.065Z,46.77
2023-05-05T12:02:19.116Z,46.35
2023-05-05T12:03:19.151Z,46.45
2023-05-05T12:04:19.069Z,45.43
2023-05-05T12:05:19.034Z,44.84
2023-05-05T12:06:19.030Z,43.55
2023-05-05T12:07:19.014Z,45.23
2023-05-05T12:08:19.018Z,44.37
2023-05-05T12:09:19.003Z,45.78
2023-05-05T12:10:18.990Z,45.18
2023-05-05T12:11:18.972Z,45.16
2023-05-05T12:12:18.999Z,45.43
2023-05-05T12:13:19.118Z,44.35
2023-05-05T12:14:19.007Z,44.45
2023-05-05T12:15:18.928Z,45.14
2023-05-05T12:16:18.961Z,44.24
2023-05-05T12:17:18.904Z,44.76
2023-05-05T12:18:18.907Z,44.46
2023-05-05T12:19:18.888Z,44.39
2023-05-05T12:20:18.886Z,46.02
2023-05-05T12:21:18.857Z,46.73
2023-05-05T12:22:18.866Z,46.24
2023-05-05T12:23:18.830Z,46.24
2023-05-05T12:24:18.842Z,46.42
2023-05-05T12:25:18.842Z,45.92
2023-05-05T12:26:18.818Z,46.91
2023-05-05T12:27:18.796Z,47.19
2023-05-05T12:28:18.833Z,47.19
2023-05-05T12:29:18.796Z,46.17
2023-05-05T12:30:18.924Z,45.90
2023-05-05T12:31:18.814Z,46.67
2023-05-05T12:32:18.780Z,46.07
2023-05-05T12:33:18.742Z,47.38
2023-05-05T12:34:18.759Z,46.00
2023-05-05T12:35:18.744Z,46.42
2023-05-05T12:36:18.733Z,47.90
2023-05-05T12:37:18.725Z,46.53
2023-05-05T12:38:18.738Z,47.50
2023-05-05T12:39:18.692Z,46.51
2023-05-05T12:40:18.694Z,46.53
2023-05-05T12:41:18.668Z,45.96
2023-05-05T12:42:18.694Z,46.56
2023-05-05T12:43:18.638Z,48.52
2023-05-05T12:44:18.733Z,46.83
2023-05-05T12:45:18.617Z,46.31
2023-05-05T12:46:18.641Z,46.79
2023-05-05T12:47:18.593Z,45.57
2023-05-05T12:48:18.602Z,44.89
2023-05-05T12:49:18.582Z,45.28
2023-05-05T12:50:18.598Z,45.78
2023-05-05T12:51:18.598Z,44.89
2023-05-05T12:52:18.581Z,44.68
2023-05-05T12:53:18.551Z,45.42
2023-05-05T12:54:18.549Z,45.42